createdAt,value
2023-03-21T00:00:47.484Z,6.33
2023-03-21T00:03:15.476Z,6.34
2023-03-21T00:05:44.428Z,6.32
2023-03-21T00:08:11.688Z,6.30
2023-03-21T00:10:43.464Z,6.30
2023-03-21T00:13:11.587Z,6.26
2023-03-21T00:15:46.271Z,6.24
2023-03-21T00:18:20.131Z,6.19
2023-03-21T00:21:09.764Z,6.19
2023-03-21T00:23:43.849Z,6.15
2023-03-21T00:26:11.107Z,6.16
2023-03-21T00:28:39.474Z,6.15
2023-03-21T00:31:07.262Z,6.16
2023-03-21T00:33:36.697Z,6.16
2023-03-21T00:36:12.585Z,6.18
2023-03-21T00:38:40.043Z,6.19
2023-03-21T00:41:19.258Z,6.23
2023-03-21T00:43:48.480Z,6.26
2023-03-21T00:46:15.709Z,6.29
2023-03-21T00:48:44.288Z,6.30
2023-03-21T00:51:14.240Z,6.34
2023-03-21T00:53:42.066Z,6.37
2023-03-21T00:56:09.690Z,6.39
2023-03-21T00:58:36.826Z,6.41
2023-03-21T01:01:04.649Z,6.41
2023-03-21T01:03:33.599Z,6.43
2023-03-21T01:06:02.123Z,6.44
2023-03-21T01:08:38.188Z,6.47
2023-03-21T01:11:14.099Z,6.45
2023-03-21T01:13:51.194Z,6.45
2023-03-21T01:16:24.259Z,6.49
2023-03-21T01:18:51.469Z,6.49
2023-03-21T01:21:20.027Z,6.50
2023-03-21T01:23:47.670Z,6.47
2023-03-21T01:26:15.580Z,6.51
2023-03-21T01:28:45.044Z,6.52
2023-03-21T01:31:14.783Z,6.55
2023-03-21T01:33:43.038Z,6.52
2023-03-21T01:36:15.124Z,6.56
2023-03-21T01:38:44.462Z,6.56
2023-03-21T01:41:22.047Z,6.59
2023-03-21T01:43:50.260Z,6.58
2023-03-21T01:46:30.236Z,6.58
2023-03-21T01:49:26.798Z,6.64
2023-03-21T01:52:12.179Z,6.62
2023-03-21T01:54:44.352Z,6.63
2023-03-21T01:57:16.756Z,6.63
2023-03-21T01:59:47.761Z,6.59
2023-03-21T02:02:29.126Z,6.61
2023-03-21T02:05:08.294Z,6.57
2023-03-21T02:07:36.943Z,6.60
2023-03-21T02:10:10.037Z,6.62
2023-03-21T02:12:40.106Z,6.64
2023-03-21T02:15:09.515Z,6.65
2023-03-21T02:17:56.480Z,6.62
2023-03-21T02:20:54.880Z,6.68
2023-03-21T02:24:19.724Z,6.70
2023-03-21T02:27:04.036Z,6.65
2023-03-21T02:30:45.626Z,6.68
2023-03-21T02:33:43.381Z,6.67
2023-03-21T02:36:27.888Z,6.69
2023-03-21T02:39:01.767Z,6.70
2023-03-21T02:41:40.576Z,6.64
2023-03-21T02:44:16.751Z,6.62
2023-03-21T02:46:56.352Z,6.60
2023-03-21T02:49:31.094Z,6.58
2023-03-21T02:52:08.555Z,6.57
2023-03-21T02:54:48.311Z,6.55
2023-03-21T02:57:21.286Z,6.52
2023-03-21T02:59:56.866Z,6.50
2023-03-21T03:02:31.867Z,6.52
2023-03-21T03:04:59.056Z,6.52
2023-03-21T03:07:44.386Z,6.56
2023-03-21T03:10:31.391Z,6.58
2023-03-21T03:13:11.319Z,6.57
2023-03-21T03:15:47.058Z,6.58
2023-03-21T03:18:20.774Z,6.58
2023-03-21T03:21:00.006Z,6.50
2023-03-21T03:23:33.638Z,6.50
2023-03-21T03:26:06.598Z,6.49
2023-03-21T03:28:38.973Z,6.50
2023-03-21T03:31:15.141Z,6.45
2023-03-21T03:33:51.461Z,6.46
2023-03-21T03:36:31.693Z,6.45
2023-03-21T03:39:05.413Z,6.44
2023-03-21T03:42:04.440Z,6.44
2023-03-21T03:44:32.769Z,6.45
2023-03-21T03:47:07.906Z,6.44
2023-03-21T03:49:41.985Z,6.43
2023-03-21T03:52:16.010Z,6.43
2023-03-21T03:54:52.221Z,6.45
2023-03-21T03:57:25.120Z,6.41
2023-03-21T03:59:52.840Z,6.41
2023-03-21T04:02:24.595Z,6.42
2023-03-21T04:04:52.407Z,6.37
2023-03-21T04:07:20.375Z,6.37
2023-03-21T04:09:48.975Z,6.39
2023-03-21T04:12:19.357Z,6.41
2023-03-21T04:15:20.427Z,6.40
2023-03-21T04:17:56.193Z,6.44
2023-03-21T04:20:36.223Z,6.46
2023-03-21T04:23:05.160Z,6.43
2023-03-21T04:25:34.687Z,6.44
2023-03-21T04:28:04.274Z,6.45
2023-03-21T04:31:02.242Z,6.48
2023-03-21T04:33:37.893Z,6.46
2023-03-21T04:36:07.271Z,6.42
2023-03-21T04:38:34.624Z,6.40
2023-03-21T04:41:04.233Z,6.41
2023-03-21T04:43:31.618Z,6.43
2023-03-21T04:46:00.153Z,6.41
2023-03-21T04:48:27.879Z,6.42
2023-03-21T04:50:55.081Z,6.41
2023-03-21T04:53:22.289Z,6.40
2023-03-21T04:55:52.482Z,6.40
2023-03-21T04:58:21.322Z,6.38
2023-03-21T05:00:48.573Z,6.36
2023-03-21T05:03:17.076Z,6.34
2023-03-21T05:05:44.266Z,6.31
2023-03-21T05:08:11.653Z,6.26
2023-03-21T05:10:39.277Z,6.21
2023-03-21T05:13:06.601Z,6.09
2023-03-21T05:15:33.837Z,6.05
2023-03-21T05:18:01.374Z,5.94
2023-03-21T05:20:29.937Z,5.83
2023-03-21T05:22:57.113Z,5.76
2023-03-21T05:25:24.291Z,5.66
2023-03-21T05:28:14.597Z,5.63
2023-03-21T05:30:43.040Z,5.64
2023-03-21T05:33:10.309Z,5.60
2023-03-21T05:35:39.578Z,5.61
2023-03-21T05:38:09.555Z,5.63
2023-03-21T05:40:47.832Z,5.68
2023-03-21T05:43:15.027Z,5.75
2023-03-21T05:45:42.681Z,5.73
2023-03-21T05:48:10.229Z,5.81
2023-03-21T05:50:54.800Z,5.82
2023-03-21T05:53:23.413Z,5.86
2023-03-21T05:55:50.772Z,5.89
2023-03-21T05:58:37.181Z,5.92
2023-03-21T06:01:05.364Z,5.98
2023-03-21T06:03:35.459Z,5.98
2023-03-21T06:06:08.288Z,6.02
2023-03-21T06:08:45.329Z,6.01
2023-03-21T06:11:23.087Z,6.07
2023-03-21T06:13:52.333Z,6.14
2023-03-21T06:16:22.826Z,6.22
2023-03-21T06:18:51.375Z,6.34
2023-03-21T06:21:31.797Z,6.47
2023-03-21T06:23:58.965Z,6.54
2023-03-21T06:26:26.098Z,6.62
2023-03-21T06:28:54.733Z,6.69
2023-03-21T06:31:22.353Z,6.80
2023-03-21T06:33:49.668Z,6.97
2023-03-21T06:36:16.979Z,7.12
2023-03-21T06:38:45.631Z,7.25
2023-03-21T06:41:13.545Z,7.25
2023-03-21T06:43:45.793Z,7.32
2023-03-21T06:46:13.034Z,7.37
2023-03-21T06:48:40.309Z,7.32
2023-03-21T06:51:07.712Z,7.19
2023-03-21T06:53:38.316Z,7.17
2023-03-21T06:56:36.263Z,7.17
2023-03-21T06:59:04.576Z,7.23
2023-03-21T07:02:01.100Z,7.40
2023-03-21T07:04:29.296Z,7.52
2023-03-21T07:06:57.890Z,7.76
2023-03-21T07:09:26.653Z,8.11
2023-03-21T07:11:56.392Z,8.38
2023-03-21T07:14:27.165Z,8.66
2023-03-21T07:16:54.446Z,8.91
2023-03-21T07:19:21.657Z,8.96
2023-03-21T07:21:48.885Z,9.24
2023-03-21T07:24:16.099Z,9.38
2023-03-21T07:26:43.333Z,9.46
2023-03-21T07:29:12.177Z,9.53
2023-03-21T07:31:40.590Z,9.78
2023-03-21T07:34:08.104Z,9.70
2023-03-21T07:36:35.352Z,9.84
2023-03-21T07:39:02.646Z,10.02
2023-03-21T07:41:30.598Z,10.23
2023-03-21T07:44:11.849Z,10.43
2023-03-21T07:46:39.025Z,10.72
2023-03-21T07:49:06.264Z,10.90
2023-03-21T07:51:33.413Z,11.02
2023-03-21T07:54:00.614Z,11.23
2023-03-21T07:56:27.847Z,11.41
2023-03-21T07:58:55.051Z,11.54
2023-03-21T08:01:23.659Z,11.68
2023-03-21T08:03:50.983Z,11.82
2023-03-21T08:06:18.155Z,11.90
2023-03-21T08:08:45.352Z,12.06
2023-03-21T08:11:13.307Z,12.15
2023-03-21T08:13:40.922Z,12.30
2023-03-21T08:16:08.982Z,12.41
2023-03-21T08:18:37.497Z,12.48
2023-03-21T08:21:05.132Z,12.37
2023-03-21T08:23:32.298Z,12.30
2023-03-21T08:25:59.551Z,12.40
2023-03-21T08:28:27.138Z,12.71
2023-03-21T08:30:54.440Z,12.75
2023-03-21T08:33:21.830Z,12.80
2023-03-21T08:35:50.375Z,12.98
2023-03-21T08:38:17.566Z,13.26
2023-03-21T08:40:44.841Z,13.27
2023-03-21T08:43:14.652Z,13.25
2023-03-21T08:45:42.089Z,13.50
2023-03-21T08:48:09.340Z,13.61
2023-03-21T08:50:36.539Z,13.60
2023-03-21T08:53:05.218Z,13.77
2023-03-21T08:55:32.438Z,13.96
2023-03-21T08:57:59.736Z,14.14
2023-03-21T09:00:26.939Z,14.41
2023-03-21T09:02:54.309Z,14.42
2023-03-21T09:05:21.836Z,14.44
2023-03-21T09:07:49.447Z,14.55
2023-03-21T09:10:23.078Z,14.76
2023-03-21T09:12:51.836Z,14.63
2023-03-21T09:15:19.685Z,14.88
2023-03-21T09:17:47.383Z,14.90
2023-03-21T09:20:14.809Z,14.43
2023-03-21T09:22:42.875Z,14.80
2023-03-21T09:25:10.120Z,15.11
2023-03-21T09:27:38.840Z,15.36
2023-03-21T09:30:07.307Z,15.25
2023-03-21T09:32:34.515Z,15.52
2023-03-21T09:35:01.716Z,15.56
2023-03-21T09:37:28.919Z,15.32
2023-03-21T09:39:56.147Z,15.40
2023-03-21T09:42:34.344Z,15.57
2023-03-21T09:45:12.021Z,15.86
2023-03-21T09:47:43.793Z,16.02
2023-03-21T09:50:15.388Z,15.99
2023-03-21T09:52:45.735Z,16.21
2023-03-21T09:55:17.283Z,16.19
2023-03-21T09:57:45.202Z,16.07
2023-03-21T10:00:20.301Z,15.92
2023-03-21T10:02:48.912Z,16.11
2023-03-21T10:05:18.816Z,15.95
2023-03-21T10:07:50.917Z,15.61
2023-03-21T10:10:21.718Z,15.77
2023-03-21T10:12:52.561Z,15.78
2023-03-21T10:15:23.001Z,15.78
2023-03-21T10:17:55.723Z,15.78
2023-03-21T10:20:24.428Z,15.66
2023-03-21T10:22:54.127Z,15.72
2023-03-21T10:25:26.201Z,15.70
2023-03-21T10:27:53.808Z,15.27
2023-03-21T10:30:35.439Z,14.89
2023-03-21T10:33:06.184Z,15.27
2023-03-21T10:35:34.309Z,15.10
2023-03-21T10:38:01.603Z,15.29
2023-03-21T10:40:34.166Z,15.54
2023-03-21T10:43:18.226Z,14.72
2023-03-21T10:45:48.107Z,14.69
2023-03-21T10:48:15.834Z,14.80
2023-03-21T10:50:46.149Z,14.89
2023-03-21T10:53:19.050Z,15.02
2023-03-21T10:55:48.661Z,14.74
2023-03-21T10:58:20.059Z,14.95
2023-03-21T11:00:48.778Z,14.91
2023-03-21T11:03:22.476Z,14.90
2023-03-21T11:05:55.237Z,14.76
2023-03-21T11:08:22.542Z,14.70
2023-03-21T11:11:01.747Z,14.62
2023-03-21T11:13:34.495Z,14.49
2023-03-21T11:16:08.189Z,14.57
2023-03-21T11:18:41.632Z,14.36
2023-03-21T11:21:10.928Z,14.51
2023-03-21T11:23:41.781Z,14.36
2023-03-21T11:26:11.766Z,14.48
2023-03-21T11:28:41.398Z,14.47
2023-03-21T11:31:10.132Z,14.51
2023-03-21T11:33:39.059Z,14.26
2023-03-21T11:36:24.228Z,14.10
2023-03-21T11:38:53.515Z,14.15
2023-03-21T11:41:24.507Z,13.93
2023-03-21T11:43:53.210Z,13.84
2023-03-21T11:46:25.834Z,13.95
2023-03-21T11:48:53.361Z,13.95
2023-03-21T11:51:28.306Z,13.76
2023-03-21T11:54:03.115Z,13.44
2023-03-21T11:56:35.394Z,13.36
2023-03-21T11:59:21.151Z,13.59
2023-03-21T12:02:01.304Z,13.93
2023-03-21T12:04:40.339Z,13.96
2023-03-21T12:07:22.197Z,14.15
2023-03-21T12:09:54.901Z,14.18
2023-03-21T12:12:38.771Z,14.25
2023-03-21T12:15:16.150Z,14.39
2023-03-21T12:17:54.619Z,14.11
2023-03-21T12:20:32.650Z,14.26
2023-03-21T12:23:14.828Z,13.99
2023-03-21T12:25:47.499Z,13.91
2023-03-21T12:28:32.676Z,13.89
2023-03-21T12:31:09.285Z,13.70
2023-03-21T12:33:48.724Z,13.70
2023-03-21T12:36:41.700Z,13.78
2023-03-21T12:39:22.970Z,14.02
2023-03-21T12:42:00.466Z,13.94
2023-03-21T12:44:31.668Z,14.00
2023-03-21T12:47:02.799Z,13.98
2023-03-21T12:49:35.391Z,13.75
2023-03-21T12:52:06.484Z,13.33
2023-03-21T12:54:39.258Z,13.33
2023-03-21T12:57:10.469Z,13.43
2023-03-21T12:59:44.018Z,13.45
2023-03-21T13:02:20.124Z,13.53
2023-03-21T13:05:01.210Z,13.57
2023-03-21T13:07:34.172Z,13.67
2023-03-21T13:10:11.652Z,13.45
2023-03-21T13:12:47.982Z,13.45
2023-03-21T13:15:45.239Z,13.09
2023-03-21T13:18:20.756Z,13.37
2023-03-21T13:20:52.549Z,13.38
2023-03-21T13:23:21.244Z,13.37
2023-03-21T13:25:50.131Z,13.20
2023-03-21T13:28:21.155Z,13.00
2023-03-21T13:30:49.543Z,13.01
2023-03-21T13:33:22.116Z,13.06
2023-03-21T13:36:00.118Z,13.06
2023-03-21T13:38:29.272Z,13.30
2023-03-21T13:40:59.211Z,13.19
2023-03-21T13:43:42.607Z,13.05
2023-03-21T13:46:12.023Z,12.63
2023-03-21T13:49:00.184Z,12.78
2023-03-21T13:51:45.772Z,12.54
2023-03-21T13:54:22.956Z,12.66
2023-03-21T13:56:54.146Z,12.85
2023-03-21T13:59:38.274Z,12.94
2023-03-21T14:02:23.122Z,12.85
2023-03-21T14:05:05.398Z,12.80
2023-03-21T14:07:39.820Z,12.72
2023-03-21T14:10:18.798Z,12.23
2023-03-21T14:12:46.485Z,12.27
2023-03-21T14:15:19.244Z,12.30
2023-03-21T14:17:50.873Z,12.27
2023-03-21T14:20:21.512Z,12.02
2023-03-21T14:22:50.372Z,12.09
2023-03-21T14:25:20.185Z,11.92
2023-03-21T14:27:49.722Z,11.82
2023-03-21T14:30:23.183Z,11.84
2023-03-21T14:32:50.503Z,11.91
2023-03-21T14:35:17.710Z,11.83
2023-03-21T14:37:46.992Z,11.86
2023-03-21T14:40:23.206Z,11.82
2023-03-21T14:42:51.558Z,11.72
2023-03-21T14:45:21.392Z,11.69
2023-03-21T14:47:56.035Z,11.67
2023-03-21T14:50:28.078Z,11.70
2023-03-21T14:52:55.567Z,11.66
2023-03-21T14:55:24.538Z,11.53
2023-03-21T14:57:52.071Z,11.45
2023-03-21T15:00:24.808Z,11.27
2023-03-21T15:02:53.673Z,11.25
2023-03-21T15:05:25.286Z,11.25
2023-03-21T15:07:55.042Z,11.34
2023-03-21T15:10:24.260Z,11.35
2023-03-21T15:12:53.712Z,11.48
2023-03-21T15:15:23.387Z,11.41
2023-03-21T15:17:52.365Z,11.29
2023-03-21T15:20:22.442Z,11.28
2023-03-21T15:22:54.063Z,11.31
2023-03-21T15:25:26.595Z,11.26
2023-03-21T15:27:55.464Z,11.31
2023-03-21T15:30:25.050Z,11.34
2023-03-21T15:32:52.518Z,11.43
2023-03-21T15:35:25.234Z,11.46
2023-03-21T15:37:55.155Z,11.34
2023-03-21T15:40:26.374Z,11.15
2023-03-21T15:43:05.260Z,11.04
2023-03-21T15:45:32.519Z,11.07
2023-03-21T15:48:01.845Z,10.92
2023-03-21T15:50:34.739Z,10.83
2023-03-21T15:53:04.906Z,10.82
2023-03-21T15:55:42.342Z,10.96
2023-03-21T15:58:15.219Z,10.96
2023-03-21T16:00:44.256Z,10.80
2023-03-21T16:03:15.692Z,10.77
2023-03-21T16:05:43.135Z,10.76
2023-03-21T16:08:20.198Z,10.71
2023-03-21T16:10:48.875Z,10.65
2023-03-21T16:13:16.062Z,10.28
2023-03-21T16:15:43.767Z,10.48
2023-03-21T16:18:14.614Z,10.43
2023-03-21T16:20:44.190Z,10.43
2023-03-21T16:23:12.199Z,10.48
2023-03-21T16:25:40.416Z,10.43
2023-03-21T16:28:14.101Z,10.46
2023-03-21T16:30:41.342Z,10.45
2023-03-21T16:33:10.531Z,10.57
2023-03-21T16:35:37.874Z,10.54
2023-03-21T16:38:05.092Z,10.49
2023-03-21T16:40:36.046Z,10.56
2023-03-21T16:43:04.621Z,10.58
2023-03-21T16:45:33.342Z,10.57
2023-03-21T16:48:00.654Z,10.53
2023-03-21T16:50:30.744Z,10.48
2023-03-21T16:52:58.291Z,10.32
2023-03-21T16:55:25.892Z,10.34
2023-03-21T16:57:53.688Z,10.28
2023-03-21T17:00:23.762Z,10.22
2023-03-21T17:02:52.795Z,10.10
2023-03-21T17:05:21.075Z,10.08
2023-03-21T17:07:48.558Z,9.97
2023-03-21T17:10:19.288Z,9.92
2023-03-21T17:12:46.830Z,9.90
2023-03-21T17:15:14.754Z,9.91
2023-03-21T17:17:41.962Z,9.87
2023-03-21T17:20:21.423Z,9.85
2023-03-21T17:22:48.898Z,9.85
2023-03-21T17:25:17.058Z,9.79
2023-03-21T17:27:45.033Z,9.75
2023-03-21T17:30:21.489Z,9.73
2023-03-21T17:32:49.074Z,9.71
2023-03-21T17:35:18.654Z,9.69
2023-03-21T17:37:46.860Z,9.67
2023-03-21T17:40:14.086Z,9.60
2023-03-21T17:42:41.239Z,9.50
2023-03-21T17:45:09.370Z,9.46
2023-03-21T17:47:37.133Z,9.42
2023-03-21T17:50:05.241Z,9.36
2023-03-21T17:52:33.741Z,9.40
2023-03-21T17:55:00.951Z,9.30
2023-03-21T17:57:28.115Z,9.34
2023-03-21T17:59:55.304Z,9.36
2023-03-21T18:02:22.543Z,9.33
2023-03-21T18:04:49.799Z,9.27
2023-03-21T18:07:28.694Z,9.23
2023-03-21T18:10:06.871Z,9.22
2023-03-21T18:12:34.099Z,9.08
2023-03-21T18:15:01.517Z,9.07
2023-03-21T18:17:28.730Z,9.05
2023-03-21T18:19:55.899Z,9.00
2023-03-21T18:22:23.054Z,8.89
2023-03-21T18:24:50.298Z,8.79
2023-03-21T18:27:19.042Z,8.76
2023-03-21T18:32:33.621Z,8.58
2023-03-21T18:35:00.995Z,8.45
2023-03-21T18:37:30.409Z,8.45
2023-03-21T18:39:58.457Z,8.41
2023-03-21T18:42:30.696Z,8.33
2023-03-21T18:44:58.306Z,8.25
2023-03-21T18:47:25.501Z,8.10
2023-03-21T18:52:39.972Z,8.03
2023-03-21T18:55:08.986Z,7.96
2023-03-21T18:57:38.834Z,7.96
2023-03-21T19:00:08.786Z,7.84
2023-03-21T19:02:41.935Z,7.71
2023-03-21T19:05:13.122Z,7.57
2023-03-21T19:07:40.314Z,7.51
2023-03-21T19:10:23.558Z,7.44
2023-03-21T19:12:53.115Z,7.37
2023-03-21T19:15:21.732Z,7.28
2023-03-21T19:20:38.563Z,7.13
2023-03-21T19:23:05.913Z,6.98
2023-03-21T19:25:33.200Z,7.02
2023-03-21T19:28:01.772Z,6.97
2023-03-21T19:30:29.218Z,6.89
2023-03-21T19:32:56.440Z,6.95
2023-03-21T19:35:23.830Z,6.98
2023-03-21T19:37:51.023Z,6.98
2023-03-21T19:40:18.243Z,6.96
2023-03-21T19:42:45.901Z,7.02
2023-03-21T19:45:14.477Z,7.08
2023-03-21T19:47:41.717Z,7.08
2023-03-21T19:52:57.277Z,7.16
2023-03-21T19:55:25.337Z,7.15
2023-03-21T19:57:52.540Z,7.17
2023-03-21T20:00:22.634Z,7.21
2023-03-21T20:02:50.160Z,7.20
2023-03-21T20:05:19.077Z,7.26
2023-03-21T20:07:46.472Z,7.31
2023-03-21T20:10:14.091Z,7.36
2023-03-21T20:12:41.319Z,7.33
2023-03-21T20:15:17.813Z,7.41
2023-03-21T20:17:49.058Z,7.47
2023-03-21T20:20:17.544Z,7.55
2023-03-21T20:23:06.098Z,7.61
2023-03-21T20:25:34.281Z,7.67
2023-03-21T20:28:15.264Z,7.68
2023-03-21T20:30:45.897Z,7.73
2023-03-21T20:33:14.577Z,7.75
2023-03-21T20:38:29.005Z,7.73
2023-03-21T20:40:56.496Z,7.74
2023-03-21T20:44:11.702Z,7.74
2023-03-21T20:46:12.579Z,7.79
2023-03-21T20:48:41.395Z,7.76
2023-03-21T20:52:14.833Z,7.75
2023-03-21T20:53:57.917Z,7.74
2023-03-21T20:56:25.171Z,7.77
2023-03-21T20:59:07.985Z,7.78
2023-03-21T21:01:39.451Z,7.77
2023-03-21T21:04:09.451Z,7.77
2023-03-21T21:06:36.877Z,7.80
2023-03-21T21:09:04.199Z,7.79
2023-03-21T21:14:18.557Z,7.85
2023-03-21T21:16:46.013Z,7.83
2023-03-21T21:19:14.638Z,7.80
2023-03-21T21:21:41.857Z,7.81
2023-03-21T21:24:09.111Z,7.82
2023-03-21T21:26:36.299Z,7.85
2023-03-21T21:29:03.510Z,7.82
2023-03-21T21:31:30.843Z,7.86
2023-03-21T21:33:58.255Z,7.86
2023-03-21T21:36:26.880Z,7.89
2023-03-21T21:38:54.594Z,7.88
2023-03-21T21:41:23.136Z,7.89
2023-03-21T21:43:50.459Z,7.90
2023-03-21T21:46:17.664Z,7.89
2023-03-21T21:48:44.829Z,7.91
2023-03-21T21:51:12.108Z,7.89
2023-03-21T21:53:40.599Z,7.94
2023-03-21T21:56:08.983Z,7.94
2023-03-21T21:58:36.214Z,8.00
2023-03-21T22:01:03.510Z,8.02
2023-03-21T22:03:30.737Z,8.02
2023-03-21T22:06:02.974Z,8.03
2023-03-21T22:08:30.148Z,8.04
2023-03-21T22:10:59.719Z,8.00
2023-03-21T22:13:27.162Z,7.93
2023-03-21T22:15:54.570Z,7.98
2023-03-21T22:18:22.050Z,7.93
2023-03-21T22:20:49.282Z,7.88
2023-03-21T22:23:16.444Z,7.84
2023-03-21T22:25:49.472Z,7.85
2023-03-21T22:28:17.966Z,7.84
2023-03-21T22:30:45.139Z,7.78
2023-03-21T22:33:12.334Z,7.83
2023-03-21T22:35:39.637Z,7.78
2023-03-21T22:38:06.849Z,7.79
2023-03-21T22:40:34.052Z,7.80
2023-03-21T22:43:01.240Z,7.71
2023-03-21T22:45:29.795Z,7.72
2023-03-21T22:47:57.035Z,7.70
2023-03-21T22:50:24.265Z,7.70
2023-03-21T22:52:51.462Z,7.66
2023-03-21T22:55:18.737Z,7.64
2023-03-21T22:57:45.901Z,7.69
2023-03-21T23:00:14.050Z,7.74
2023-03-21T23:02:42.664Z,7.73
2023-03-21T23:05:10.301Z,7.75
2023-03-21T23:07:37.984Z,7.77
2023-03-21T23:10:06.320Z,7.70
2023-03-21T23:12:33.598Z,7.63
2023-03-21T23:15:02.278Z,7.60
2023-03-21T23:17:29.728Z,7.49
2023-03-21T23:19:58.286Z,7.44
2023-03-21T23:22:25.444Z,7.45
2023-03-21T23:24:52.609Z,7.42
2023-03-21T23:27:19.859Z,7.34
2023-03-21T23:29:47.144Z,7.37
2023-03-21T23:32:14.481Z,7.31
2023-03-21T23:34:41.659Z,7.27
2023-03-21T23:37:10.183Z,7.26
2023-03-21T23:39:38.161Z,7.26
2023-03-21T23:42:05.858Z,7.21
2023-03-21T23:44:33.090Z,7.33
2023-03-21T23:47:00.368Z,7.37
2023-03-21T23:49:27.611Z,7.41
2023-03-21T23:51:54.827Z,7.43
2023-03-21T23:54:23.374Z,7.50
2023-03-21T23:56:50.589Z,7.51
2023-03-21T23:59:17.817Z,7.46
